Archiv-/Tagesdaten

--Timestamp---	Temp	Chill	HIndex	Humid	Dewpt	 Wind 	HiWind	WindDir	Rain 	Barom	Solar	 ET  	 UV 
--------------	----	-----	------	-----	-----	------	------	-------	-----	-----	-----	-----	----
20110528 00:00	8.3	8.3	8.3	90	6.8	5	11	248	0.0	1018.1	0	0.000	0.0
20110528 00:05	8.3	8.3	8.3	90	6.8	3	8	248	0.0	1018.3	0	0.000	0.0
20110528 00:10	8.3	8.3	8.3	91	7.0	5	10	248	0.0	1018.3	0	0.000	0.0
20110528 00:15	8.3	7.4	8.3	90	6.8	6	10	225	0.0	1018.4	0	0.000	0.0
20110528 00:20	8.3	8.3	8.3	91	6.9	5	8	248	0.0	1018.3	0	0.000	0.0
20110528 00:25	8.3	7.4	8.3	91	6.9	6	11	225	0.0	1018.3	0	0.000	0.0
20110528 00:30	8.3	7.4	8.3	91	6.9	6	11	248	0.0	1018.3	0	0.000	0.0
20110528 00:35	8.3	7.0	8.3	91	6.9	8	11	225	0.2	1018.3	0	0.000	0.0
20110528 00:40	8.3	7.4	8.3	91	6.9	6	11	225	0.0	1018.3	0	0.000	0.0
20110528 00:45	8.3	7.0	8.3	91	6.9	8	16	225	0.0	1018.3	0	0.000	0.0
20110528 00:50	8.2	6.9	8.2	91	6.8	8	18	248	0.0	1018.3	0	0.000	0.0
20110528 00:55	8.2	6.9	8.2	91	6.8	8	16	225	0.0	1018.3	0	0.000	0.0
20110528 01:00	8.2	6.9	8.2	91	6.8	8	13	225	0.0	1018.3	0	0.000	0.0
20110528 01:05	8.2	6.9	8.2	91	6.8	8	11	225	0.0	1018.3	0	0.000	0.0
20110528 01:10	8.2	6.9	8.2	91	6.8	8	16	225	0.0	1018.3	0	0.000	0.0
20110528 01:15	8.2	7.3	8.2	91	6.8	6	14	270	0.0	1018.3	0	0.000	0.0
20110528 01:20	8.2	7.3	8.2	91	6.8	6	13	248	0.0	1018.3	0	0.000	0.0
20110528 01:25	8.2	7.3	8.2	91	6.8	6	13	270	0.0	1018.2	0	0.000	0.0
20110528 01:30	8.2	7.3	8.2	91	6.8	6	13	248	0.0	1018.2	0	0.000	0.0
20110528 01:35	8.2	7.3	8.2	91	6.8	6	11	225	0.0	1018.1	0	0.000	0.0
20110528 01:40	8.2	7.3	8.2	91	6.8	6	11	270	0.0	1018.1	0	0.000	0.0
20110528 01:45	8.2	7.3	8.2	91	6.8	6	13	270	0.0	1018.1	0	0.000	0.0
20110528 01:50	8.2	7.3	8.2	91	6.8	6	14	225	0.0	1018.0	0	0.000	0.0
20110528 01:55	8.2	7.3	8.2	91	6.8	6	11	270	0.0	1018.0	0	0.000	0.0
20110528 02:00	8.2	8.2	8.2	91	6.8	3	10	270	0.0	1018.0	0	0.000	0.0
20110528 02:05	8.2	8.2	8.2	91	6.8	5	10	225	0.0	1018.2	0	0.000	0.0
20110528 02:10	8.2	8.2	8.2	91	6.8	5	11	225	0.0	1018.2	0	0.000	0.0
20110528 02:15	8.2	8.2	8.2	91	6.8	5	10	248	0.0	1018.2	0	0.000	0.0
20110528 02:20	8.2	7.3	8.2	91	6.8	6	11	225	0.0	1018.2	0	0.000	0.0
20110528 02:25	8.1	8.1	8.1	91	6.7	5	8	225	0.0	1018.2	0	0.000	0.0
20110528 02:30	8.1	6.8	8.1	91	6.7	8	11	225	0.0	1018.1	-100000	0.000	0.0
20110528 02:35	8.1	7.2	8.1	91	6.7	6	11	225	0.0	1018.1	0	0.000	0.0
20110528 02:40	8.1	6.8	8.1	91	6.7	8	11	225	0.0	1018.1	0	0.000	0.0
20110528 02:45	8.1	7.2	8.1	91	6.7	6	11	248	0.0	1018.2	0	0.000	0.0
20110528 02:50	8.1	7.2	8.1	91	6.7	6	13	225	0.0	1018.2	0	0.000	0.0
20110528 02:55	8.2	7.3	8.2	91	6.8	6	10	225	0.0	1018.1	0	0.000	0.0
20110528 03:00	8.1	8.1	8.1	91	6.7	5	10	248	0.0	1018.2	0	0.000	0.0
20110528 03:05	8.2	7.3	8.2	91	6.8	6	11	248	0.0	1018.1	0	0.000	0.0
20110528 03:10	8.2	7.3	8.2	91	6.8	6	11	270	0.0	1018.2	0	0.000	0.0
20110528 03:15	8.2	7.3	8.2	91	6.8	6	11	225	0.0	1018.2	0	0.000	0.0
20110528 03:20	8.2	8.2	8.2	91	6.8	5	11	225	0.0	1018.2	0	0.000	0.0
20110528 03:25	8.2	6.9	8.2	91	6.8	8	16	248	0.0	1018.2	0	0.000	0.0
20110528 03:30	8.2	6.9	8.2	91	6.8	8	14	248	0.0	1018.1	0	0.000	0.0
20110528 03:35	8.2	7.3	8.2	91	6.8	6	11	248	0.0	1018.1	0	0.000	0.0
20110528 03:40	8.2	8.2	8.2	91	6.8	5	13	225	0.0	1018.1	0	0.000	0.0
20110528 03:45	8.2	7.3	8.2	91	6.8	6	14	270	0.0	1018.1	0	0.000	0.0
20110528 03:50	8.2	8.2	8.2	91	6.8	5	10	270	0.0	1018.1	0	0.000	0.0
20110528 03:55	8.2	8.2	8.2	91	6.8	5	10	270	0.0	1018.1	0	0.000	0.0
20110528 04:00	8.2	7.3	8.2	91	6.8	6	14	292	0.0	1018.0	0	0.000	0.0
20110528 04:05	8.2	7.3	8.2	91	6.8	6	11	248	0.0	1018.0	0	0.000	0.0
20110528 04:10	8.3	8.3	8.3	91	6.9	5	8	248	0.0	1017.9	0	0.000	0.0
20110528 04:15	8.2	8.2	8.2	91	6.8	5	10	292	0.0	1017.8	0	0.000	0.0
20110528 04:20	8.2	8.2	8.2	91	6.8	5	14	270	0.0	1017.9	0	0.000	0.0
20110528 04:25	8.2	7.3	8.2	91	6.8	6	11	270	0.0	1017.8	0	0.000	0.0
20110528 04:30	8.2	7.3	8.2	91	6.8	6	11	270	0.0	1017.8	0	0.000	0.0
20110528 04:35	8.2	8.2	8.2	91	6.8	5	8	270	0.0	1017.8	0	0.000	0.0
20110528 04:40	8.1	8.1	8.1	91	6.7	5	10	248	0.0	1017.8	0	0.000	0.0
20110528 04:45	8.1	8.1	8.1	91	6.7	5	11	248	0.0	1017.8	0	0.000	0.0
20110528 04:50	8.1	8.1	8.1	91	6.7	5	8	248	0.0	1017.8	0	0.000	0.0
20110528 04:55	8.1	7.2	8.1	91	6.7	6	10	248	0.0	1017.8	0	0.000	0.0
20110528 05:00	8.1	8.1	8.1	91	6.7	5	10	248	0.0	1017.9	0	0.000	0.0
20110528 05:05	8.1	8.1	8.1	91	6.7	3	8	248	0.0	1018.0	0	0.000	0.0
20110528 05:10	8.1	8.1	8.1	91	6.7	3	8	248	0.0	1018.1	0	0.000	0.0
20110528 05:15	8.2	8.2	8.2	91	6.8	2	6	248	0.0	1018.2	0	0.000	0.0
20110528 05:20	8.2	8.2	8.2	91	6.8	3	8	248	0.0	1018.3	0	0.000	0.0
20110528 05:25	8.2	8.2	8.2	91	6.8	5	6	248	0.0	1018.3	0	0.000	0.0
20110528 05:30	8.2	8.2	8.2	91	6.8	5	10	270	0.0	1018.4	0	0.000	0.0
20110528 05:35	8.2	8.2	8.2	91	6.8	3	6	292	0.0	1018.5	0	0.000	0.0
20110528 05:40	8.2	8.2	8.2	91	6.8	5	10	292	0.0	1018.6	0	0.000	0.0
20110528 05:45	8.3	7.4	8.3	92	7.1	6	13	225	0.0	1018.6	0	0.000	0.0
20110528 05:50	8.3	8.3	8.3	92	7.1	3	10	202	0.0	1018.6	3	0.000	0.0
20110528 05:55	8.3	8.3	8.3	92	7.1	5	6	202	0.0	1018.6	7	0.000	0.0
20110528 06:00	8.3	8.3	8.3	92	7.1	5	10	202	0.0	1018.6	12	0.000	0.0
20110528 06:05	8.3	8.3	8.3	92	7.1	5	10	202	0.0	1018.6	14	0.000	0.0
20110528 06:10	8.3	8.3	8.3	92	7.1	5	11	225	0.0	1018.7	16	0.000	0.0
20110528 06:15	8.3	8.3	8.3	92	7.1	5	8	292	0.0	1018.7	17	0.000	0.0
20110528 06:20	8.3	8.3	8.3	92	7.1	5	10	270	0.0	1018.7	20	0.000	0.0
20110528 06:25	8.4	8.4	8.4	91	7.0	5	8	292	0.0	1018.8	21	0.000	0.0
20110528 06:30	8.4	8.4	8.4	91	7.0	3	5	270	0.0	1018.8	21	0.000	0.0
20110528 06:35	8.4	8.4	8.4	91	7.1	5	10	270	0.0	1018.9	24	0.000	0.0
20110528 06:40	8.4	7.6	8.4	91	7.1	6	10	292	0.0	1018.8	32	0.000	0.0
20110528 06:45	8.5	7.6	8.5	91	7.1	6	11	292	0.0	1018.8	32	0.000	0.0
20110528 06:50	8.6	7.7	8.6	91	7.2	6	11	270	0.0	1018.7	40	0.000	0.0
20110528 06:55	8.6	8.6	8.6	91	7.2	5	8	270	0.0	1018.7	41	0.000	0.0
20110528 07:00	8.7	8.7	8.7	91	7.3	5	8	292	0.0	1018.8	34	0.025	0.0
20110528 07:05	8.7	8.7	8.7	91	7.3	3	8	315	0.0	1018.9	27	0.000	0.0
20110528 07:10	8.7	7.8	8.7	91	7.3	6	10	292	0.0	1018.8	34	0.000	0.0
20110528 07:15	8.7	8.7	8.7	91	7.3	3	8	292	0.0	1018.9	37	0.000	0.0
20110528 07:20	8.7	7.9	8.7	91	7.3	6	14	270	0.0	1018.9	49	0.000	0.0
20110528 07:25	8.8	8.8	8.8	90	7.2	5	8	315	0.0	1018.8	63	0.000	0.0
20110528 07:30	8.8	8.8	8.8	91	7.4	5	10	315	0.0	1018.8	84	0.000	0.0
20110528 07:35	8.8	8.8	8.8	91	7.4	3	6	292	0.0	1018.9	93	0.000	0.0
20110528 07:40	8.9	8.9	8.9	90	7.4	3	6	292	0.2	1018.9	90	0.000	0.0
20110528 07:45	9.1	9.1	9.1	91	7.7	3	8	292	0.0	1018.9	104	0.000	0.3
20110528 07:50	9.1	8.3	9.1	90	7.6	6	10	315	0.0	1018.9	110	0.000	0.5
20110528 07:55	9.2	8.5	9.2	90	7.7	6	14	292	0.0	1018.8	128	0.000	0.6
20110528 08:00	9.2	8.1	9.2	89	7.5	8	14	292	0.0	1018.8	122	0.051	0.7
20110528 08:05	9.3	9.3	9.3	90	7.8	5	8	270	0.0	1018.8	111	0.000	0.7
20110528 08:10	9.3	8.6	9.3	89	7.6	6	13	292	0.0	1018.9	110	0.000	0.7
20110528 08:15	9.3	8.6	9.3	89	7.6	6	10	292	0.0	1018.8	104	0.000	0.7
20110528 08:20	9.3	8.2	9.3	88	7.4	8	14	292	0.0	1018.8	138	0.000	0.9
20110528 08:25	9.4	8.7	9.4	89	7.7	6	11	292	0.0	1018.9	186	0.000	1.1
20110528 08:30	9.6	8.9	9.6	88	7.7	6	11	292	0.0	1018.9	186	0.000	1.3
20110528 08:35	9.7	8.6	9.7	88	7.8	8	16	315	0.0	1018.9	184	0.000	1.2
20110528 08:40	9.8	9.1	9.8	88	7.9	6	11	270	0.0	1018.9	237	0.000	1.5
20110528 08:45	9.9	8.9	9.9	87	7.8	8	11	270	0.0	1019.0	250	0.000	1.7
20110528 08:50	9.9	9.3	9.9	86	7.7	6	16	270	0.0	1018.9	192	0.000	1.6
20110528 08:55	10.1	10.1	10.1	86	7.9	6	11	270	0.0	1019.0	222	0.000	1.6
20110528 09:00	10.2	10.2	10.2	86	7.9	6	10	292	0.0	1019.1	219	0.102	1.8
20110528 09:05	10.3	10.3	10.3	85	7.9	6	10	270	0.0	1019.3	223	0.000	1.8
20110528 09:10	10.3	10.3	10.3	84	7.7	6	11	292	0.0	1019.2	148	0.000	1.5
20110528 09:15	10.3	10.3	10.3	84	7.7	5	10	270	0.0	1019.2	148	0.000	1.7
20110528 09:20	10.3	10.3	10.3	84	7.7	5	8	270	0.0	1019.3	185	0.000	1.9
20110528 09:25	10.4	10.4	10.4	84	7.8	5	10	270	0.0	1019.3	275	0.000	2.1
20110528 09:30	10.5	10.5	10.5	84	7.9	3	6	292	0.0	1019.3	215	0.000	2.0
20110528 09:35	10.7	10.7	10.7	84	8.1	2	5	292	0.0	1019.3	326	0.000	2.7
20110528 09:40	10.9	10.9	10.9	84	8.3	3	8	292	0.0	1019.4	494	0.000	2.8
20110528 09:45	11.1	11.1	11.1	82	8.2	3	10	292	0.0	1019.4	195	0.000	2.0
20110528 09:50	11.1	11.1	11.1	81	8.0	5	10	292	0.0	1019.4	208	0.000	2.3
20110528 09:55	11.1	11.1	11.1	79	7.6	2	6	270	0.0	1019.4	320	0.000	2.7
20110528 10:00	11.2	11.2	11.2	80	7.8	3	11	292	0.0	1019.4	306	0.127	3.1
20110528 10:05	11.3	11.3	11.3	79	7.8	3	11	292	0.0	1019.3	405	0.000	3.5
20110528 10:10	11.4	11.4	11.4	79	7.9	5	8	292	0.0	1019.3	284	0.000	2.7
20110528 10:15	11.4	11.4	11.4	79	7.9	3	6	292	0.0	1019.2	237	0.000	2.2
20110528 10:20	11.4	11.4	11.4	80	8.1	5	11	292	0.0	1019.2	298	0.000	2.9
20110528 10:25	11.6	11.6	11.6	79	8.0	3	8	292	0.0	1019.2	264	0.000	3.1
20110528 10:30	11.5	11.5	11.5	77	7.6	3	6	292	0.0	1019.2	262	0.000	3.7
20110528 10:35	11.7	11.7	11.7	76	7.6	3	6	292	0.0	1019.1	480	0.000	4.6
20110528 10:40	12.0	12.0	12.0	75	7.7	2	8	292	0.0	1019.0	564	0.000	5.4
20110528 10:45	12.3	12.3	12.3	74	7.8	2	6	292	0.0	1019.0	930	0.000	5.6
20110528 10:50	12.6	12.6	12.6	75	8.2	3	10	0	0.0	1018.8	254	0.000	3.1
20110528 10:55	12.6	12.6	12.6	74	8.0	6	11	292	0.0	1018.8	274	0.000	3.3
20110528 11:00	12.6	12.6	12.6	74	8.1	8	16	292	0.0	1018.7	643	0.203	5.1
20110528 11:05	12.9	12.9	12.9	74	8.4	8	14	270	0.0	1018.8	778	0.000	4.5
20110528 11:10	12.9	12.9	12.9	72	8.0	8	14	292	0.0	1018.7	269	0.000	2.3
20110528 11:15	12.8	12.8	12.8	74	8.3	5	10	270	0.0	1018.7	178	0.000	1.8
20110528 11:20	12.6	12.6	12.6	76	8.5	6	10	315	0.0	1018.8	152	0.000	1.5
20110528 11:25	12.4	12.4	12.4	74	7.9	3	6	315	0.0	1018.8	150	0.000	1.5
20110528 11:30	12.3	12.3	12.3	77	8.4	5	6	292	0.0	1018.8	164	0.000	1.7
20110528 11:35	12.2	12.2	12.2	77	8.3	3	6	292	0.0	1018.7	191	0.000	2.1
20110528 11:40	12.2	12.2	12.2	75	7.9	5	8	315	0.0	1018.7	222	0.000	2.4
20110528 11:45	12.2	12.2	12.2	74	7.7	2	6	292	0.0	1018.7	251	0.000	2.8
20110528 11:50	12.2	12.2	12.2	73	7.5	3	8	292	0.0	1018.7	278	0.000	3.2
20110528 11:55	12.3	12.3	12.3	72	7.4	2	6	292	0.0	1018.7	294	0.000	3.5
20110528 12:00	12.4	12.4	12.4	72	7.5	0	5	292	0.0	1018.6	324	0.152	4.0
20110528 12:05	12.6	12.6	12.6	73	7.9	0	3	112	0.0	1018.5	373	0.000	4.5
20110528 12:10	12.8	12.8	12.8	70	7.5	2	5	112	0.0	1018.4	536	0.000	6.2
20110528 12:15	13.2	13.2	13.2	70	7.8	0	2	112	0.0	1018.4	664	0.000	6.6
20110528 12:20	13.4	13.4	13.4	66	7.2	2	5	112	0.0	1018.3	449	0.000	5.4
20110528 12:25	13.7	13.7	13.7	68	7.9	3	8	292	0.0	1018.3	516	0.000	6.2
20110528 12:30	13.9	13.9	13.9	65	7.4	0	5	292	0.0	1018.2	512	0.000	5.7
20110528 12:35	13.9	13.9	13.9	64	7.2	2	5	248	0.0	1018.1	265	0.000	3.7
20110528 12:40	13.8	13.8	13.8	65	7.4	3	6	248	0.0	1018.1	253	0.000	3.6
20110528 12:45	13.8	13.8	13.8	66	7.5	2	6	248	0.0	1018.1	249	0.000	3.5
20110528 12:50	13.7	13.7	13.7	66	7.5	3	8	248	0.0	1018.1	248	0.000	3.5
20110528 12:55	13.7	13.7	13.7	66	7.5	2	5	248	0.0	1018.1	259	0.000	3.6
20110528 13:00	13.7	13.7	13.7	67	7.7	2	6	248	0.0	1018.0	277	0.203	3.8
20110528 13:05	13.8	13.8	13.8	67	7.8	2	6	270	0.0	1018.0	290	0.000	3.9
20110528 13:10	13.8	13.8	13.8	67	7.8	6	14	248	0.0	1018.0	304	0.000	3.7
20110528 13:15	13.8	13.8	13.8	67	7.8	8	14	202	0.0	1018.0	279	0.000	3.1
20110528 13:20	13.8	13.8	13.8	67	7.8	6	10	202	0.0	1017.9	200	0.000	2.2
20110528 13:25	13.6	13.6	13.6	67	7.6	8	16	248	0.0	1017.9	129	0.000	1.4
20110528 13:30	13.4	13.4	13.4	68	7.7	8	16	248	0.0	1018.0	94	0.000	0.9
20110528 13:35	13.3	13.3	13.3	71	8.2	5	11	225	0.0	1018.1	79	0.000	0.7
20110528 13:40	13.1	13.1	13.1	73	8.4	6	19	248	0.0	1018.1	72	0.000	0.7
20110528 13:45	12.7	12.7	12.7	77	8.8	8	19	270	0.0	1018.1	77	0.000	0.8
20110528 13:50	12.3	12.3	12.3	79	8.7	8	18	270	0.0	1018.2	101	0.000	1.0
20110528 13:55	12.1	12.1	12.1	80	8.8	6	11	270	0.2	1018.1	137	0.000	1.3
20110528 14:00	11.9	11.9	11.9	79	8.4	6	16	248	0.0	1018.1	187	0.102	1.8
20110528 14:05	11.9	11.9	11.9	79	8.4	5	11	248	0.0	1018.0	226	0.000	2.3
20110528 14:10	12.1	12.1	12.1	77	8.1	6	11	248	0.0	1017.9	278	0.000	2.9
20110528 14:15	12.3	12.3	12.3	76	8.2	6	11	225	0.0	1018.0	318	0.000	3.4
20110528 14:20	12.5	12.5	12.5	76	8.4	5	10	248	0.0	1017.7	324	0.000	3.5
20110528 14:25	12.8	12.8	12.8	72	7.9	5	8	225	0.0	1017.7	341	0.000	3.7
20110528 14:30	13.1	13.1	13.1	70	7.7	5	10	248	0.0	1017.6	372	0.000	4.7
20110528 14:35	13.4	13.4	13.4	67	7.4	5	10	248	0.0	1017.6	680	0.000	5.1
20110528 14:40	14.0	14.0	14.0	67	8.0	3	10	248	0.0	1017.4	804	0.000	6.2
20110528 14:45	14.4	14.4	14.4	66	8.2	2	5	248	0.0	1017.4	769	0.000	6.2
20110528 14:50	15.0	15.0	15.0	64	8.2	5	10	180	0.0	1017.2	506	0.000	5.5
20110528 14:55	15.0	15.0	15.0	62	7.8	6	13	202	0.0	1017.1	781	0.000	5.9
20110528 15:00	15.0	15.0	15.0	62	7.8	5	11	202	0.0	1017.0	437	0.279	4.6
20110528 15:05	15.0	15.0	15.0	61	7.5	5	10	248	0.0	1017.0	405	0.000	4.3
20110528 15:10	15.0	15.0	15.0	62	7.8	3	13	225	0.0	1017.0	434	0.000	4.4
20110528 15:15	15.2	15.2	15.2	62	7.9	5	10	225	0.0	1017.0	465	0.000	5.3
20110528 15:20	15.6	15.6	15.6	60	7.8	2	8	225	0.0	1016.9	872	0.000	6.3
20110528 15:25	15.9	15.9	15.9	59	7.9	5	10	180	0.0	1016.8	367	0.000	4.3
20110528 15:30	15.9	15.9	15.9	55	6.9	8	11	292	0.0	1016.8	213	0.000	2.5
20110528 15:35	15.7	15.7	15.7	56	6.9	5	11	225	0.0	1016.9	206	0.000	2.2
20110528 15:40	15.3	15.3	15.3	58	7.1	3	6	270	0.0	1016.9	179	0.000	1.8
20110528 15:45	15.0	15.0	15.0	56	6.3	3	6	270	0.0	1016.9	173	0.000	1.6
20110528 15:50	15.0	15.0	15.0	58	6.8	2	5	270	0.0	1016.9	179	0.000	1.5
20110528 15:55	15.0	15.0	15.0	59	7.0	5	11	270	0.0	1016.8	223	0.000	1.8
20110528 16:00	15.0	15.0	15.0	58	6.8	3	10	225	0.0	1016.8	275	0.203	2.1
20110528 16:05	15.0	15.0	15.0	59	7.0	3	8	225	0.0	1016.8	346	0.000	2.6
20110528 16:10	15.3	15.3	15.3	60	7.6	6	11	270	0.0	1016.7	554	0.000	3.4
20110528 16:15	15.7	15.7	15.7	59	7.7	8	16	270	0.0	1016.6	545	0.000	3.6
20110528 16:20	15.8	15.8	15.8	56	7.0	10	16	270	0.0	1016.6	490	0.000	3.6
20110528 16:25	15.8	15.8	15.8	56	7.0	6	13	248	0.0	1016.5	444	0.000	3.2
20110528 16:30	15.9	15.9	15.9	55	6.9	6	10	270	0.0	1016.4	670	0.000	3.7
20110528 16:35	16.1	16.1	16.1	54	6.7	6	10	225	0.0	1016.4	404	0.000	3.0
20110528 16:40	16.1	16.1	16.1	57	7.6	6	14	248	0.0	1016.3	545	0.000	3.5
20110528 16:45	16.2	16.2	16.2	55	7.1	5	10	270	0.0	1016.2	466	0.000	3.1
20110528 16:50	16.2	16.2	16.2	55	7.2	3	8	248	0.0	1016.1	365	0.000	2.9
20110528 16:55	16.2	16.2	16.2	55	7.1	5	11	270	0.0	1016.2	214	0.000	2.3
20110528 17:00	16.1	16.1	16.1	56	7.3	3	14	270	0.0	1016.2	330	0.279	2.4
20110528 17:05	16.2	16.2	16.2	56	7.4	8	16	292	0.0	1016.2	371	0.000	2.5
20110528 17:10	16.2	16.2	16.2	54	6.9	6	11	248	0.0	1016.3	242	0.000	2.1
20110528 17:15	16.1	16.1	16.1	55	7.0	6	14	270	0.0	1016.2	157	0.000	1.7
20110528 17:20	15.8	15.8	15.8	56	7.1	6	10	225	0.0	1016.3	156	0.000	1.7
20110528 17:25	15.6	15.6	15.6	56	6.9	5	11	248	0.0	1016.5	187	0.000	1.7
20110528 17:30	15.5	15.5	15.5	56	6.8	5	8	248	0.0	1016.5	203	0.000	1.6
20110528 17:35	15.5	15.5	15.5	56	6.8	5	8	248	0.0	1016.4	228	0.000	1.6
20110528 17:40	15.7	15.7	15.7	53	6.2	5	8	248	0.0	1016.5	482	0.000	1.9
20110528 17:45	16.2	16.2	16.2	52	6.3	5	11	248	0.0	1016.3	529	0.000	1.9
20110528 17:50	16.6	16.6	16.6	55	7.5	2	8	225	0.0	1016.3	491	0.000	1.9
20110528 17:55	16.9	16.9	16.9	51	6.7	8	14	270	0.0	1016.2	440	0.000	1.7
20110528 18:00	16.8	16.8	16.8	51	6.6	5	11	270	0.0	1016.2	429	0.203	1.6
20110528 18:05	16.7	16.7	16.7	53	7.0	2	3	270	0.0	1016.1	406	0.000	1.5
20110528 18:10	16.8	16.8	16.8	51	6.6	3	11	270	0.0	1016.1	381	0.000	1.3
20110528 18:15	17.0	17.0	17.0	52	7.1	2	6	292	0.0	1016.0	381	0.000	1.3
20110528 18:20	17.2	17.2	17.2	51	7.0	3	10	292	0.0	1016.0	359	0.000	1.2
20110528 18:25	17.3	17.3	17.3	49	6.5	3	6	292	0.0	1016.0	344	0.000	1.1
20110528 18:30	17.3	17.3	17.3	51	7.0	5	11	225	0.0	1015.9	332	0.000	1.0
20110528 18:35	17.3	17.3	17.3	49	6.5	3	8	225	0.0	1016.0	321	0.000	1.0
20110528 18:40	17.2	17.2	17.2	51	6.9	3	8	225	0.0	1015.9	280	0.000	0.9
20110528 18:45	16.9	16.9	16.9	50	6.4	3	6	225	0.0	1015.9	73	0.000	0.7
20110528 18:50	16.4	16.4	16.4	51	6.2	3	6	248	0.0	1016.0	68	0.000	0.7
20110528 18:55	16.1	16.1	16.1	55	7.0	2	5	248	0.0	1016.1	69	0.000	0.6
20110528 19:00	15.7	15.7	15.7	58	7.4	5	8	270	0.0	1016.0	54	0.152	0.2
20110528 19:05	15.3	15.3	15.3	60	7.6	5	8	292	0.0	1016.1	55	0.000	0.3
20110528 19:10	15.0	15.0	15.0	61	7.5	5	8	292	0.0	1016.1	62	0.000	0.1
20110528 19:15	15.0	15.0	15.0	62	7.8	3	6	292	0.0	1016.1	70	0.000	0.0
20110528 19:20	15.0	15.0	15.0	64	8.2	2	6	292	0.0	1016.1	77	0.000	0.0
20110528 19:25	14.9	14.9	14.9	66	8.6	2	5	292	0.0	1016.1	98	0.000	0.0
20110528 19:30	14.9	14.9	14.9	64	8.1	2	5	292	0.0	1016.0	114	0.000	0.0
20110528 19:35	15.0	15.0	15.0	64	8.2	0	2	292	0.0	1016.0	121	0.000	0.0
20110528 19:40	15.0	15.0	15.0	61	7.5	0	2	292	0.0	1016.0	95	0.000	0.0
20110528 19:45	15.0	15.0	15.0	60	7.3	0	2	292	0.0	1016.0	78	0.000	0.0
20110528 19:50	15.0	15.0	15.0	62	7.8	0	0	-100000	0.0	1016.0	60	0.000	0.0
20110528 19:55	15.0	15.0	15.0	61	7.5	0	2	292	0.0	1015.9	48	0.000	0.0
20110528 20:00	15.0	15.0	15.0	60	7.3	0	0	-100000	0.0	1016.0	41	0.051	0.0
20110528 20:05	14.8	14.8	14.8	60	7.1	0	0	-100000	0.0	1015.9	33	0.000	0.0
20110528 20:10	14.7	14.7	14.7	60	7.0	0	0	-100000	0.0	1016.1	27	0.000	0.0
20110528 20:15	14.5	14.5	14.5	60	6.8	0	0	-100000	0.0	1016.1	26	0.000	0.0
20110528 20:20	14.4	14.4	14.4	61	7.0	0	0	-100000	0.0	1016.1	25	0.000	0.0
20110528 20:25	14.3	14.3	14.3	62	7.1	0	0	-100000	0.0	1016.1	21	0.000	0.0
20110528 20:30	14.2	14.2	14.2	65	7.7	0	0	-100000	0.0	1016.2	16	0.000	0.0
20110528 20:35	14.1	14.1	14.1	67	8.1	0	0	-100000	0.0	1016.3	12	0.000	0.0
20110528 20:40	13.9	13.9	13.9	68	8.1	0	0	-100000	0.0	1016.3	9	0.000	0.0
20110528 20:45	13.8	13.8	13.8	69	8.2	0	0	-100000	0.0	1016.3	7	0.000	0.0
20110528 20:50	13.5	13.5	13.5	70	8.1	0	0	-100000	0.0	1016.2	6	0.000	0.0
20110528 20:55	13.3	13.3	13.3	71	8.2	0	0	-100000	0.0	1016.2	5	0.000	0.0
20110528 21:00	13.1	13.1	13.1	70	7.7	0	5	292	0.0	1016.3	1	0.025	0.0
20110528 21:05	12.9	12.9	12.9	73	8.2	0	3	292	0.0	1016.3	0	0.000	0.0
20110528 21:10	12.8	12.8	12.8	73	8.1	0	2	292	0.0	1016.3	0	0.000	0.0
20110528 21:15	12.7	12.7	12.7	74	8.2	0	3	292	0.0	1016.3	0	0.000	0.0
20110528 21:20	12.5	12.5	12.5	74	8.0	2	5	292	0.0	1016.3	0	0.000	0.0
20110528 21:25	12.4	12.4	12.4	74	7.9	0	6	248	0.0	1016.4	0	0.000	0.0
20110528 21:30	12.2	12.2	12.2	75	7.9	0	3	248	0.0	1016.3	0	0.000	0.0
20110528 21:35	12.1	12.1	12.1	75	7.8	0	5	248	0.0	1016.4	0	0.000	0.0
20110528 21:40	12.1	12.1	12.1	75	7.8	2	3	248	0.0	1016.4	0	0.000	0.0
20110528 21:45	11.9	11.9	11.9	76	7.8	0	5	248	0.0	1016.3	0	0.000	0.0
20110528 21:50	11.9	11.9	11.9	76	7.8	0	2	248	0.0	1016.5	0	0.000	0.0
20110528 21:55	11.8	11.8	11.8	77	7.9	0	5	248	0.0	1016.5	0	0.000	0.0
20110528 22:00	11.7	11.7	11.7	77	7.8	0	3	248	0.0	1016.4	0	0.000	0.0
20110528 22:05	11.6	11.6	11.6	77	7.7	2	3	248	0.0	1016.2	0	0.000	0.0
20110528 22:10	11.4	11.4	11.4	78	7.7	2	6	248	0.0	1016.2	0	0.000	0.0
20110528 22:15	11.3	11.3	11.3	78	7.6	2	6	225	0.0	1016.4	0	0.000	0.0
20110528 22:20	11.2	11.2	11.2	78	7.5	2	5	225	0.0	1016.5	0	0.000	0.0
20110528 22:25	11.2	11.2	11.2	79	7.7	0	3	225	0.0	1016.4	0	0.000	0.0
20110528 22:30	11.1	11.1	11.1	78	7.4	0	2	225	0.0	1016.4	0	0.000	0.0
20110528 22:35	10.9	10.9	10.9	79	7.4	0	5	225	0.0	1016.5	0	0.000	0.0
20110528 22:40	10.8	10.8	10.8	79	7.3	0	2	225	0.0	1016.5	0	0.000	0.0
20110528 22:45	10.7	10.7	10.7	80	7.4	0	6	225	0.0	1016.6	0	0.000	0.0
20110528 22:50	10.6	10.6	10.6	80	7.2	2	5	225	0.0	1016.6	0	0.000	0.0
20110528 22:55	10.4	10.4	10.4	81	7.3	0	5	225	0.0	1016.6	0	0.000	0.0
20110528 23:00	10.4	10.4	10.4	81	7.3	0	5	225	0.0	1016.6	0	0.025	0.0
20110528 23:05	10.3	10.3	10.3	81	7.2	0	3	225	0.0	1016.7	0	0.000	0.0
20110528 23:10	10.2	10.2	10.2	82	7.3	2	6	225	0.0	1016.8	0	0.000	0.0
20110528 23:15	10.2	10.2	10.2	82	7.2	0	2	225	0.0	1016.8	0	0.000	0.0
20110528 23:20	10.1	10.1	10.1	82	7.2	0	3	225	0.0	1016.7	0	0.000	0.0
20110528 23:25	10.0	10.0	10.0	83	7.2	0	5	225	0.0	1016.8	0	0.000	0.0
20110528 23:30	9.9	9.9	9.9	83	7.2	2	5	225	0.0	1016.8	0	0.000	0.0
20110528 23:35	9.8	9.8	9.8	83	7.1	2	6	225	0.0	1016.8	0	0.000	0.0
20110528 23:40	9.7	9.7	9.7	83	7.0	0	3	225	0.0	1016.9	0	0.000	0.0
20110528 23:45	9.6	9.6	9.6	83	6.8	0	3	225	0.0	1017.1	0	0.000	0.0
20110528 23:50	9.5	9.5	9.5	84	6.9	2	5	225	0.0	1017.1	0	0.000	0.0
20110528 23:55	9.4	9.4	9.4	84	6.9	0	2	225	0.0	1017.1	0	0.000	0.0



Please note the license to use and transfer of this data:
http://creativecommons.org/licenses/by-nc-sa/3.0/deed.en

Bitte beachten sie die Lizenz zur Verwertung und Weitergabe der Daten:
http://creativecommons.org/licenses/by-nc-sa/3.0/deed.de

zurück zur Übersicht der Archivdaten (Monats und Tagesdaten)

Cookies helfen bei der Bereitstellung von Inhalten. Durch die Nutzung dieser Seiten erklärst du dich damit einverstanden, dass Cookies auf deinem Rechner gespeichert werden. Weitere Information